^^
Station Historical Data
Daily Summary for May 30, 2017 Units:  English    Metric   Both
« Previous Day
Next Day »
Daily Weekly Monthly Yearly Custom
  High: Low: Average:
Temperature: 60.7 °F 53.1 °F 56.4 °F
Dew Point: 56.4 °F 51.8 °F 53.8 °F
Humidity: 96% 82% 91%
Wind Speed: 3.0mph 0.0mph 0.7mph
Wind Gust: 12.0mph - -
Wind- - SSW
Pressure: 30.19 in 30.12 in -
Precipitation: 0.04 in    
Historical Graphs
 
 
Tabular Data for May 30, 2017
Time Temperature Dew Point Pressure Wind Wind Speed Wind Gust Humidity Rainfall Rate (Hourly) Conditions
00:00 53.8 °F 51.8 °F 30.12 in Calm   2.0 mph 93% 0.00 in RA
00:15 53.9 °F 51.9 °F 30.12 in Calm   1.0 mph 93% 0.00 in BKN
00:30 53.9 °F 51.9 °F 30.12 in Calm   1.0 mph 93% 0.00 in BKN
00:45 53.9 °F 52.2 °F 30.13 in Calm   1.0 mph 94% 0.00 in BKN
01:00 53.9 °F 52.3 °F 30.13 in Calm     94% 0.00 in BKN
02:15 53.9 °F 52.2 °F 30.14 in Calm   2.0 mph 94% 0.00 in OVC
02:45 53.9 °F 52.5 °F 30.14 in Calm   1.0 mph 95% 0.00 in OVC
03:00 53.8 °F 52.4 °F 30.13 in Calm   1.0 mph 95% 0.00 in OVC
03:15 53.8 °F 52.4 °F 30.14 in Calm   1.0 mph 95% 0.00 in -DZ
03:30 53.9 °F 52.8 °F 30.13 in Calm   1.0 mph 96% 0.00 in -DZ
03:45 53.8 °F 52.7 °F 30.14 in Calm   3.0 mph 96% 0.01 in -DZ
04:00 53.8 °F 52.7 °F 30.14 in Calm   4.0 mph 96% 0.00 in -DZ
04:15 53.7 °F 52.6 °F 30.14 in SW 1.0 mph 3.0 mph 96% 0.00 in -DZ
04:30 53.6 °F 52.5 °F 30.15 in Calm   2.0 mph 96% 0.00 in -DZ
04:45 53.5 °F 52.4 °F 30.14 in Calm   2.0 mph 96% 0.00 in -DZ
05:00 53.5 °F 52.4 °F 30.15 in SW 1.0 mph 3.0 mph 96% 0.00 in -DZ
05:15 53.4 °F 52.3 °F 30.15 in SW 1.0 mph 4.0 mph 96% 0.00 in -DZ
05:30 53.3 °F 52.2 °F 30.16 in SSW 1.0 mph 4.0 mph 96% 0.00 in -DZ
05:45 53.2 °F 52.1 °F 30.16 in SSW 1.0 mph 3.0 mph 96% 0.00 in -DZ
06:00 53.1 °F 52.0 °F 30.16 in SSW 1.0 mph 4.0 mph 96% 0.00 in -DZ
06:15 53.1 °F 52.0 °F 30.16 in Calm   4.0 mph 96% 0.00 in -DZ
06:30 53.1 °F 52.0 °F 30.17 in SW 1.0 mph 3.0 mph 96% 0.00 in -DZ
06:45 53.2 °F 52.1 °F 30.17 in SW 1.0 mph 6.0 mph 96% 0.00 in -DZ
07:00 53.1 °F 52.0 °F 30.17 in SW 1.0 mph 5.0 mph 96% 0.00 in -DZ
07:15 53.2 °F 52.1 °F 30.18 in SSW 1.0 mph 4.0 mph 96% 0.00 in -DZ
07:30 53.3 °F 52.2 °F 30.18 in Calm   3.0 mph 96% 0.00 in -DZ
07:45 53.4 °F 52.3 °F 30.18 in SW 1.0 mph 4.0 mph 96% 0.00 in -DZ
08:00 53.5 °F 52.4 °F 30.18 in Calm   2.0 mph 96% 0.00 in -DZ
08:15 53.6 °F 52.5 °F 30.18 in SSW 1.0 mph 3.0 mph 96% 0.00 in -DZ
08:30 53.6 °F 52.5 °F 30.18 in Calm   6.0 mph 96% 0.00 in -DZ
08:45 54.0 °F 52.9 °F 30.19 in Calm   3.0 mph 96% 0.00 in -DZ
09:00 54.3 °F 53.2 °F 30.19 in SW 2.0 mph 8.0 mph 96% 0.00 in -DZ
09:15 54.3 °F 53.2 °F 30.19 in West 1.0 mph 4.0 mph 96% 0.00 in -DZ
09:30 54.2 °F 52.8 °F 30.19 in Calm   4.0 mph 95% 0.00 in -DZ
09:45 54.3 °F 52.9 °F 30.19 in WSW 1.0 mph 7.0 mph 95% 0.00 in -DZ
10:00 54.7 °F 53.3 °F 30.18 in Calm   5.0 mph 95% 0.00 in -DZ
10:15 55.2 °F 53.8 °F 30.18 in South 2.0 mph 5.0 mph 95% 0.00 in OVC
10:30 55.4 °F 53.7 °F 30.18 in Calm   4.0 mph 94% 0.00 in OVC
10:45 56.0 °F 54.0 °F 30.18 in SW 1.0 mph 4.0 mph 93% 0.00 in OVC
11:00 56.3 °F 54.3 °F 30.18 in SSE 2.0 mph 5.0 mph 93% 0.00 in OVC
11:15 57.0 °F 54.7 °F 30.17 in South 1.0 mph 4.0 mph 92% 0.00 in OVC
11:30 58.0 °F 55.1 °F 30.17 in SW 1.0 mph 5.0 mph 90% 0.00 in OVC
11:45 58.4 °F 54.9 °F 30.18 in WSW 2.0 mph 6.0 mph 88% 0.00 in OVC
12:00 58.9 °F 55.0 °F 30.18 in WSW 1.0 mph 5.0 mph 87% 0.00 in OVC
12:15 59.3 °F 55.1 °F 30.18 in Calm   6.0 mph 86% 0.00 in OVC
12:30 59.8 °F 55.0 °F 30.17 in SSW 3.0 mph 7.0 mph 84% 0.00 in OVC
12:45 60.4 °F 55.2 °F 30.17 in SSW 3.0 mph 12.0 mph 83% 0.00 in OVC
13:00 60.6 °F 55.1 °F 30.17 in WSW 1.0 mph 8.0 mph 82% 0.00 in OVC
13:15 60.0 °F 54.8 °F 30.17 in SSW 3.0 mph 7.0 mph 83% 0.00 in OVC
13:30 60.1 °F 54.9 °F 30.17 in SW 1.0 mph 7.0 mph 83% 0.00 in OVC
13:45 60.7 °F 55.5 °F 30.16 in WSW 1.0 mph 9.0 mph 83% 0.00 in OVC
14:00 60.6 °F 55.1 °F 30.15 in SSW 1.0 mph 8.0 mph 82% 0.00 in OVC
14:15 60.6 °F 55.4 °F 30.14 in SSW 1.0 mph 9.0 mph 83% 0.00 in OVC
14:30 60.7 °F 55.2 °F 30.14 in South 2.0 mph 5.0 mph 82% 0.00 in OVC
14:45 60.1 °F 54.9 °F 30.13 in SW 1.0 mph 6.0 mph 83% 0.00 in OVC
15:00 59.7 °F 54.9 °F 30.14 in SSW 1.0 mph 8.0 mph 84% 0.00 in OVC
15:15 59.1 °F 54.6 °F 30.13 in SW 1.0 mph 7.0 mph 85% 0.00 in OVC
15:30 59.0 °F 54.8 °F 30.13 in Calm   4.0 mph 86% 0.00 in OVC
15:45 59.1 °F 54.9 °F 30.14 in SSW 1.0 mph 3.0 mph 86% 0.00 in OVC
16:00 58.5 °F 54.6 °F 30.14 in SW 1.0 mph 9.0 mph 87% 0.00 in OVC
16:15 58.2 °F 55.0 °F 30.13 in SW 2.0 mph 5.0 mph 89% 0.01 in -RA
16:30 57.9 °F 55.3 °F 30.12 in ENE 1.0 mph 4.0 mph 91% 0.01 in -RA
16:45 57.8 °F 55.5 °F 30.12 in Calm   4.0 mph 92% 0.00 in -RA
17:00 58.8 °F 56.2 °F 30.13 in SE 1.0 mph 7.0 mph 91% 0.00 in -RA
17:15 59.6 °F 56.4 °F 30.12 in WSW 1.0 mph 4.0 mph 89% 0.00 in BKN
17:30 59.3 °F 55.4 °F 30.13 in WSW 1.0 mph 6.0 mph 87% 0.00 in BKN
17:45 59.1 °F 55.5 °F 30.14 in WSW 1.0 mph 6.0 mph 88% 0.00 in BKN
18:00 58.8 °F 54.9 °F 30.13 in SSE 1.0 mph 5.0 mph 87% 0.00 in BKN
18:15 58.9 °F 55.0 °F 30.13 in Calm   4.0 mph 87% 0.00 in BKN
18:30 58.5 °F 54.6 °F 30.13 in SE 1.0 mph 4.0 mph 87% 0.00 in BKN
18:45 58.5 °F 54.6 °F 30.12 in SW 1.0 mph 7.0 mph 87% 0.00 in BKN
19:00 58.6 °F 54.7 °F 30.13 in Calm   5.0 mph 87% 0.00 in BKN
19:15 58.3 °F 54.5 °F 30.12 in SW 1.0 mph 7.0 mph 87% 0.00 in BKN
19:30 58.0 °F 54.2 °F 30.12 in SW 1.0 mph 4.0 mph 87% 0.00 in BKN
19:45 57.6 °F 54.1 °F 30.12 in Calm   5.0 mph 88% 0.00 in BKN
20:00 57.4 °F 53.9 °F 30.13 in SW 1.0 mph 5.0 mph 88% 0.00 in BKN
20:15 57.2 °F 54.0 °F 30.13 in SW 1.0 mph 3.0 mph 89% 0.00 in BKN
20:30 57.1 °F 54.2 °F 30.13 in Calm   2.0 mph 90% 0.00 in BKN
20:45 56.9 °F 53.7 °F 30.13 in Calm   3.0 mph 89% 0.00 in BKN
21:00 56.8 °F 53.9 °F 30.13 in SSE 1.0 mph 3.0 mph 90% 0.00 in BKN
21:15 56.7 °F 53.8 °F 30.13 in SE 2.0 mph 5.0 mph 90% 0.00 in BKN
21:45 56.4 °F 54.1 °F 30.14 in Calm   3.0 mph 92% 0.00 in BKN
22:00 56.2 °F 54.2 °F 30.14 in Calm   2.0 mph 93% 0.00 in BKN
22:15 56.1 °F 54.4 °F 30.14 in Calm   2.0 mph 94% 0.00 in OVC
22:30 56.1 °F 54.7 °F 30.13 in Calm   1.0 mph 95% 0.00 in OVC
22:45 56.2 °F 54.8 °F 30.13 in Calm   2.0 mph 95% 0.00 in OVC
23:00 56.1 °F 54.7 °F 30.13 in Calm   2.0 mph 95% 0.00 in OVC
23:15 56.2 °F 55.1 °F 30.12 in Calm   1.0 mph 96% 0.01 in RA
23:30 56.2 °F 55.1 °F 30.12 in Calm   2.0 mph 96% 0.00 in
23:45 56.2 °F 55.1 °F 30.12 in Calm   3.0 mph 96% 0.00 in
TarryTown NY Weather
Compliments of Weather Underground - 1.5 mb